Latest Weather Observations for Tatura

IDV60801

Issued at 9:42 am EDT Thursday 23 January 2020 (issued every 10 minutes, with the page automatically refreshed every 10 minutes)

About weather observations | Map of weather stations | Latest weather observations for VIC | Other Formats
Station Details ID: 081049 Name: TATURA INST SUSTAINABLE AG Lat: -36.44 Lon: 145.27 Height: 114.0 m
Data from the previous 72 hours. | See also: Recent months at Tatura
Date/Time
EDT
Temp
°C
App
Temp
°C
Dew
Point
°C
Rel
Hum
%
Delta-T
°C
Wind Press
QNH
hPa
Press
MSL
hPa
Rain since
9am
mm
Dir  Spd
km/h
Gust
km/h
Spd
kts
Gust
kts
23/09:30am 16.5 14.9 15.0 91 0.9 N 17 20 9 11 - - 0.0
23/09:00am 16.3 15.2 15.2 93 0.6 N 15 19 8 10 - - 9.0
23/08:30am 16.0 15.2 15.2 95 0.5 N 13 17 7 9 - - 9.0
23/08:00am 15.9 15.5 15.3 96 0.3 N 11 17 6 9 - - 9.0
23/07:30am 16.1 16.7 15.8 98 0.2 N 7 11 4 6 - - 8.8
23/07:00am 16.5 17.4 16.5 100 0.0 N 7 9 4 5 - - 8.2
23/06:30am 16.7 19.0 16.7 100 0.0 CALM 0 0 0 0 - - 7.0
23/06:00am 16.6 17.7 16.6 100 0.0 SSE 6 9 3 5 - - 5.2
23/05:30am 16.8 16.9 16.6 99 0.1 WSW 11 19 6 10 - - 3.8
23/05:00am 16.8 15.6 16.0 95 0.5 WSW 17 30 9 16 - - 2.2
23/04:30am 17.5 16.6 15.8 90 1.0 WSW 15 28 8 15 - - 0.2
23/04:00am 18.0 17.5 15.8 87 1.3 WSW 13 20 7 11 - - 0.2
23/03:30am 18.1 16.8 15.7 86 1.4 WSW 17 24 9 13 - - 0.2
23/03:00am 18.6 18.2 15.1 80 2.1 S 11 15 6 8 - - 0.0
23/02:30am 19.4 17.7 14.6 74 2.8 SW 17 26 9 14 - - 0.0
23/02:00am 19.5 18.9 14.7 74 2.8 SSW 11 19 6 10 - - 0.0
23/01:30am 19.9 18.3 14.9 73 2.9 SSW 17 26 9 14 - - 0.0
23/01:00am 23.7 23.9 13.0 51 6.2 WSW 4 9 2 5 - - 0.0
23/12:30am 24.9 23.7 11.5 43 7.6 NW 9 13 5 7 - - 0.0
23/12:00am 25.7 24.4 11.1 40 8.3 W 9 15 5 8 - - 0.0
 
Date/Time
EDT
Temp
°C
App
Temp
°C
Dew
Point
°C
Rel
Hum
%
Delta-T
°C
Wind Press
QNH
hPa
Press
MSL
hPa
Rain since
9am
mm
Dir  Spd
km/h
Gust
km/h
Spd
kts
Gust
kts
22/11:30pm 26.6 22.3 10.7 37 9.0 WNW 24 35 13 19 - - 0.0
22/11:00pm 29.5 22.9 10.1 30 11.0 NNW 35 59 19 32 - - 0.0
22/10:46pm 29.6 23.6 10.2 30 11.0 NNW 32 59 17 32 - - 0.0
22/10:33pm 28.5 22.8 11.1 34 10.0 NW 32 50 17 27 - - 0.0
22/10:30pm 28.2 22.0 11.3 35 9.7 NW 35 56 19 30 - - 0.0
22/10:23pm 28.3 19.1 10.9 34 9.9 NW 50 78 27 42 - - 0.0
22/10:15pm 29.8 20.7 9.9 29 11.3 NW 48 78 26 42 - - 0.0
22/10:14pm 29.7 21.1 10.3 30 11.1 NW 46 78 25 42 - - 0.0
22/10:05pm 30.9 24.1 9.2 26 12.2 NNW 35 59 19 32 - - 0.0
22/10:00pm 30.2 22.5 10.2 29 11.4 NNW 41 67 22 36 - - 0.0
22/09:30pm 31.3 24.0 8.9 25 12.6 NNW 37 61 20 33 - - 0.0
22/09:28pm 31.4 23.6 8.4 24 12.8 NNW 39 61 21 33 - - 0.0
22/09:26pm 31.4 23.0 9.0 25 12.6 NNW 43 65 23 35 - - 0.0
22/09:07pm 32.0 22.9 7.0 21 13.7 N 44 91 24 49 - - 0.0
22/09:00pm 30.0 24.5 9.0 27 11.7 NNE 28 61 15 33 - - 0.0
22/08:58pm 29.7 25.0 9.3 28 11.4 NNE 24 61 13 33 - - 0.0
22/08:30pm 27.6 23.7 10.8 35 9.6 NE 22 32 12 17 - - 0.0
22/08:00pm 27.1 23.8 10.8 36 9.3 NE 19 28 10 15 - - 0.0
22/07:30pm 26.9 23.6 11.0 37 9.0 NE 19 28 10 15 - - 0.0
22/07:00pm 26.1 24.3 12.2 42 8.0 NNE 13 20 7 11 - - 0.0
22/06:30pm 27.7 23.8 10.9 35 9.6 N 22 33 12 18 - - 0.0
22/06:00pm 29.1 26.0 8.7 28 11.3 NW 15 22 8 12 - - 0.0
22/05:30pm 29.9 22.0 7.8 25 12.1 NW 39 56 21 30 - - 0.0
22/05:29pm 30.0 22.1 7.8 25 12.2 NW 39 56 21 30 - - 0.0
22/05:07pm 32.1 26.8 4.8 18 14.4 NNW 22 48 12 26 - - 0.0
22/05:00pm 32.3 27.7 5.7 19 14.3 NNW 19 26 10 14 - - 0.0
22/04:30pm 30.5 25.9 8.3 25 12.3 WNW 22 37 12 20 - - 0.0
22/04:00pm 32.4 26.7 5.1 18 14.5 NW 24 35 13 19 - - 0.0
22/03:30pm 32.6 25.6 6.0 19 14.3 NNW 32 46 17 25 - - 0.0
22/03:00pm 33.1 26.0 6.4 19 14.5 N 33 46 18 25 - - 0.0
22/02:30pm 33.5 26.8 7.5 20 14.4 N 32 46 17 25 - - 0.0
22/02:00pm 33.1 26.5 8.5 22 13.8 N 33 54 18 29 - - 0.0
22/01:30pm 32.1 24.9 9.0 24 13.0 N 37 56 20 30 - - 0.0
22/01:00pm 32.2 25.4 9.1 24 13.1 N 35 50 19 27 - - 0.0
22/12:30pm 31.6 26.6 10.9 28 12.0 N 28 48 15 26 - - 0.0
22/12:00pm 29.4 24.7 11.9 34 10.2 NNE 28 43 15 23 - - 0.0
22/11:46am 29.4 24.6 11.5 33 10.4 NNE 28 46 15 25 - - 0.0
22/11:30am 28.5 23.7 12.8 38 9.3 NNE 30 41 16 22 - - 0.0
22/11:00am 27.5 23.8 13.8 43 8.2 NNE 26 39 14 21 - - 0.0
22/10:30am 26.2 22.1 13.7 46 7.4 NNE 28 48 15 26 - - 0.0
22/10:28am 26.1 22.0 13.9 47 7.3 NNE 28 48 15 26 - - 0.0
22/10:00am 24.8 21.3 14.6 53 6.1 NNE 26 37 14 20 - - 0.0
22/09:30am 23.0 20.9 15.3 62 4.6 NNE 20 32 11 17 - - 0.0
22/09:00am 21.8 19.2 14.9 65 4.1 NNE 22 35 12 19 - - 0.0
22/08:30am 20.7 18.1 14.8 69 3.5 NNE 22 35 12 19 - - 0.0
22/08:00am 19.6 17.9 14.6 73 2.9 NNE 17 24 9 13 - - 0.0
22/07:30am 18.3 16.3 13.8 75 2.6 NE 17 24 9 13 - - 0.0
22/07:00am 17.3 15.0 13.0 76 2.4 NE 17 22 9 12 - - 0.0
22/06:30am 17.0 15.3 12.5 75 2.5 NE 13 19 7 10 - - 0.0
22/06:00am 17.2 15.5 12.5 74 2.6 NE 13 17 7 9 - - 0.0
22/05:30am 16.9 15.2 12.4 75 2.5 NE 13 17 7 9 - - 0.0
22/05:00am 17.0 15.7 12.5 75 2.5 NE 11 15 6 8 - - 0.0
22/04:30am 16.8 15.4 12.3 75 2.5 NNE 11 15 6 8 - - 0.0
22/04:00am 17.1 15.7 12.2 73 2.7 NE 11 13 6 7 - - 0.0
22/03:30am 16.7 15.3 12.3 75 2.4 NE 11 13 6 7 - - 0.0
22/03:00am 16.7 16.0 12.0 74 2.6 NE 7 13 4 7 - - 0.0
22/02:30am 15.4 16.1 12.2 81 1.8 CALM 0 0 0 0 - - 0.0
22/02:00am 16.3 16.3 12.3 77 2.2 NE 4 11 2 6 - - 0.0
22/01:30am 16.5 15.1 11.0 70 3.0 NE 9 11 5 6 - - 0.0
22/01:00am 17.0 15.8 11.5 70 3.0 NNE 9 11 5 6 - - 0.0
22/12:30am 16.5 15.5 12.3 76 2.3 NE 9 11 5 6 - - 0.0
22/12:00am 16.3 17.6 14.1 87 1.3 CALM 0 0 0 0 - - 0.0
 
Date/Time
EDT
Temp
°C
App
Temp
°C
Dew
Point
°C
Rel
Hum
%
Delta-T
°C
Wind Press
QNH
hPa
Press
MSL
hPa
Rain since
9am
mm
Dir  Spd
km/h
Gust
km/h
Spd
kts
Gust
kts
21/11:30pm 16.4 17.5 13.5 83 1.6 CALM 0 0 0 0 - - 0.0
21/11:00pm 17.5 17.0 12.6 73 2.7 N 7 9 4 5 - - 0.0
21/10:30pm 18.4 17.8 12.2 67 3.5 N 7 9 4 5 - - 0.0
21/10:00pm 18.9 19.7 12.4 66 3.6 CALM 0 0 0 0 - - 0.0
21/09:30pm 19.3 19.5 10.6 57 4.7 CALM 0 2 0 1 - - 0.0
21/09:00pm 21.0 20.5 11.9 56 5.1 NW 6 6 3 3 - - 0.0
21/08:30pm 23.6 21.4 7.7 36 8.4 NW 9 15 5 8 - - 0.0
21/08:00pm 24.9 22.1 7.1 32 9.4 NW 11 17 6 9 - - 0.0
21/07:30pm 25.4 22.5 8.0 33 9.3 NNW 13 19 7 10 - - 0.0
21/07:00pm 25.6 22.3 6.3 29 10.1 NW 13 19 7 10 - - 0.0
21/06:30pm 25.9 21.6 7.0 30 10.0 WNW 19 24 10 13 - - 0.0
21/06:00pm 25.9 21.5 6.5 29 10.2 NNW 19 28 10 15 - - 0.0
21/05:30pm 25.7 21.7 8.2 33 9.4 WNW 19 26 10 14 - - 0.0
21/05:00pm 25.4 21.4 8.4 34 9.2 NW 19 26 10 14 - - 0.0
21/04:30pm 25.5 22.0 8.9 35 9.0 NW 17 32 9 17 - - 0.0
21/04:00pm 25.6 24.0 11.7 42 8.0 NNW 11 24 6 13 - - 0.0
21/03:30pm 24.6 22.7 11.9 45 7.3 WNW 13 20 7 11 - - 0.0
21/03:00pm 24.4 22.9 10.7 42 7.7 WNW 9 24 5 13 - - 0.0
21/02:30pm 24.2 22.7 10.5 42 7.6 NW 9 22 5 12 - - 0.0
21/02:00pm 22.7 21.1 12.9 54 5.6 WSW 13 19 7 10 - - 0.0
21/01:30pm 22.1 21.0 12.1 53 5.7 WNW 9 19 5 10 - - 0.0
21/01:00pm 21.3 19.9 12.2 56 5.1 NW 11 17 6 9 - - 0.0
21/12:30pm 20.7 19.7 13.4 63 4.2 S 11 19 6 10 - - 0.0
21/12:00pm 19.6 18.3 12.4 63 4.0 SSW 11 19 6 10 - - 0.0
21/11:30am 18.9 17.0 11.9 64 3.9 WSW 13 20 7 11 - - 0.0
21/11:00am 18.4 16.6 12.2 67 3.5 SSW 13 20 7 11 - - 0.0
21/10:30am 17.9 15.9 11.5 66 3.5 SSW 13 22 7 12 - - 0.0
21/10:00am 17.4 14.7 11.7 69 3.1 S 17 24 9 13 - - 0.0
21/09:30am 16.6 13.8 11.5 72 2.8 SSW 17 24 9 13 - - 0.0
21/09:00am 16.7 14.2 12.3 75 2.4 S 17 22 9 12 - - 12.6
21/08:30am 15.9 13.2 11.7 76 2.3 S 17 24 9 13 - - 12.6
21/08:00am 15.6 12.9 11.8 78 2.1 S 17 26 9 14 - - 12.6
21/07:30am 15.2 13.4 12.2 82 1.6 SSW 13 20 7 11 - - 12.6
21/07:00am 14.6 13.1 11.9 84 1.5 SSW 11 17 6 9 - - 12.6
21/06:30am 14.1 12.6 11.8 86 1.2 SSW 11 15 6 8 - - 12.6
21/06:00am 14.2 12.6 11.7 85 1.3 SSW 11 15 6 8 - - 12.6
21/05:30am 14.3 12.4 11.8 85 1.4 SSW 13 19 7 10 - - 12.6
21/05:00am 14.2 12.3 11.7 85 1.3 SW 13 20 7 11 - - 12.6
21/04:30am 14.2 11.5 11.7 85 1.3 SSW 17 26 9 14 - - 12.6
21/04:00am 14.1 11.4 11.8 86 1.2 SW 17 26 9 14 - - 12.6
21/03:30am 14.3 11.7 12.0 86 1.2 SSW 17 30 9 16 - - 12.6
21/03:00am 14.6 12.2 12.5 87 1.2 SSW 17 28 9 15 - - 12.6
21/02:30am 14.8 12.0 12.7 87 1.2 SW 19 28 10 15 - - 12.6
21/02:00am 15.0 12.8 13.2 89 1.0 SW 17 28 9 15 - - 12.6
21/01:30am 15.2 13.0 13.2 88 1.1 SSW 17 28 9 15 - - 12.6
21/01:00am 15.5 13.3 13.3 87 1.2 SSW 17 28 9 15 - - 12.6
21/12:30am 15.6 13.0 13.3 86 1.3 SSW 19 30 10 16 - - 12.6
21/12:00am 15.9 13.7 13.4 85 1.4 SW 17 28 9 15 - - 12.6
 
Date/Time
EDT
Temp
°C
App
Temp
°C
Dew
Point
°C
Rel
Hum
%
Delta-T
°C
Wind Press
QNH
hPa
Press
MSL
hPa
Rain since
9am
mm
Dir  Spd
km/h
Gust
km/h
Spd
kts
Gust
kts
20/11:30pm 16.1 13.6 13.6 85 1.4 SSW 19 28 10 15 - - 12.6
20/11:00pm 16.5 14.0 14.0 85 1.4 SSW 20 28 11 15 - - 12.6
20/10:30pm 17.0 14.6 14.3 84 1.6 SSW 20 32 11 17 - - 12.6
20/10:00pm 17.1 15.4 14.6 85 1.4 SSW 17 28 9 15 - - 12.6
20/09:30pm 17.2 15.9 14.7 85 1.4 SW 15 20 8 11 - - 12.6
20/09:00pm 17.5 15.8 14.8 84 1.6 SW 17 24 9 13 - - 12.6
20/08:30pm 17.8 16.3 15.4 86 1.4 SSW 17 28 9 15 - - 12.6
20/08:00pm 17.9 17.6 17.3 96 0.4 SW 15 20 8 11 - - 12.6
20/07:30pm 17.8 18.1 17.8 100 0.0 WSW 13 19 7 10 - - 12.6
20/07:00pm 17.4 16.3 17.4 100 0.0 W 19 28 10 15 - - 12.4
20/06:30pm 16.9 16.4 16.9 100 0.0 WNW 15 19 8 10 - - 12.4
20/06:00pm 16.8 15.8 16.6 99 0.1 W 17 22 9 12 - - 11.4
20/05:30pm 16.2 15.2 15.7 97 0.3 W 15 20 8 11 - - 9.2
20/05:00pm 16.2 15.4 15.2 94 0.6 WSW 13 20 7 11 - - 7.0
20/04:30pm 20.6 18.5 15.2 71 3.2 NW 20 26 11 14 - - 1.2
20/04:00pm 21.1 19.3 15.9 72 3.1 NW 20 28 11 15 - - 1.2
20/03:30pm 22.7 23.6 15.0 61 4.6 E 4 9 2 5 - - 1.2
20/03:00pm 22.7 22.3 15.3 63 4.4 E 11 15 6 8 - - 1.2
20/02:30pm 22.8 21.9 14.9 61 4.7 ESE 13 22 7 12 - - 1.2
20/02:00pm 23.1 22.5 14.7 59 5.0 ESE 11 19 6 10 - - 1.2
20/01:30pm 22.4 22.7 16.0 67 3.9 ESE 9 15 5 8 - - 1.2
20/01:00pm 21.4 20.4 15.7 70 3.4 S 15 22 8 12 - - 1.2
20/12:30pm 20.8 20.3 16.0 74 2.9 S 13 20 7 11 - - 1.2
20/12:00pm 21.1 22.5 16.3 74 2.9 SW 4 11 2 6 - - 1.2
20/11:30am 19.8 20.1 16.1 79 2.2 NE 9 11 5 6 - - 1.2
20/11:00am 18.6 18.5 16.0 85 1.6 ENE 11 15 6 8 - - 1.2
20/10:30am 17.9 18.6 16.2 90 1.0 SSE 7 13 4 7 - - 1.2
20/10:00am 16.8 16.8 16.3 97 0.3 S 11 17 6 9 - - 1.2

Other formats

Comma delimited format used in spreadsheet applications
http://www.bom.gov.au/fwo/IDV60801/IDV60801.95836.axf

JavaScript Object Notation format (JSON) in row-major order
http://www.bom.gov.au/fwo/IDV60801/IDV60801.95836.json

Data quality

Most of these data are generated automatically and are frequently updated. Quality checks on data are not normally performed. It is possible for incorrect values to appear. Refer to information at About Latest Weather Observations and please check the disclaimer before using these data.